Iliamna, AK

04:36 AM AKST em 09 de Dezembro de 2016 (GMT -0900)
Iliamna | | Change Station

Elev 161 ft 59.75 °N, 154.91 °W | Updated 43 minutes ago

Céu Encoberto
Céu Encoberto
8 °F
Aparente -8 °F
N
13
Vento Variável Vento de Norte

Hoje
Máxima -- | Mínima -- °F
--% Possibilidade de Precip.
Ontem
Máxima -- | Mínima -- °F
Precip. -- pol
Pressão 30.06 pol
Visibilidade 10.0 milhas
Nuvens Céu Encoberto 7000 ft
Sensação Térmica -8 °F
Ponto de Orvalho 2 °F
Humidade 76%
Chuva 0.00 pol
Altura de Neve Não disponível
10:07 AM 4:16 PM
Lua crescente, 74% visible
METAR PAIL 091253Z AUTO 01011KT 10SM OVC070 M13/M17 A3004 RMK AO2 SLP179 T11331167 TSNO
Pressão 30.06 pol
Visibilidade 10.0 milhas
Nuvens Céu Encoberto 7000 ft
Sensação Térmica -8 °F
Ponto de Orvalho 2 °F
Humidade 76%
Chuva 0.00 pol
Altura de Neve Não disponível
10:07 AM 4:16 PM
Lua crescente, 74% visible
METAR PAIL 091253Z AUTO 01011KT 10SM OVC070 M13/M17 A3004 RMK AO2 SLP179 T11331167 TSNO

10-Day Weather Forecast

Almanac

Astronomia

Dec. 09, 2016 Nascer Pôr
Hora atual
Crepúsculo civil
Crepúsculo náutico
Crepúsculo astronómico
Lua
Comprimento da luz visível
Duração do Dia
Tomorrow will be .
, % of the Moon is Illuminated

Extremos de Hoje

situação na parte mais alta situação na parte mais baixa

Community

WunderPhotos

Upload Photos

1,956,407 fotografias inseridas!

WunderBlog® & News

Nearby

Qualidade do Ar

  Qualidade do Ar Índice da Q.A. Poluente
Not available.

Altura da Neve

Estação altura Altitude

Actividade Sísmisca

Cidade Distância Mag. Hora & Data
Mínima magnitude apresentada é 2.5.

Temperaturas das Águas Costeiras

Local Temperatura

Stations

Estações Meteorológicas Próximas

Localização da Estação Temp. Sensação Térmica Ponto de Orvalho Humidade Vento Precip. Elev Actualizado Tipo
                   

Watches & Warnings

There are currently no watches in effect.